createdAt,value
2019-02-24T00:00:55.057Z,3.80
2019-02-24T00:03:24.653Z,3.80
2019-02-24T00:05:54.101Z,3.80
2019-02-24T00:08:23.506Z,3.80
2019-02-24T00:10:52.909Z,3.70
2019-02-24T00:13:22.266Z,3.70
2019-02-24T00:19:31.676Z,3.80
2019-02-24T00:22:01.702Z,3.80
2019-02-24T00:24:31.023Z,3.80
2019-02-24T00:27:03.787Z,3.70
2019-02-24T00:29:33.288Z,3.70
2019-02-24T00:32:02.821Z,3.70
2019-02-24T00:34:32.371Z,3.70
2019-02-24T00:37:02.013Z,3.60
2019-02-24T00:43:11.395Z,3.60
2019-02-24T00:45:40.757Z,3.60
2019-02-24T00:48:10.195Z,3.60
2019-02-24T00:50:39.694Z,3.50
2019-02-24T00:53:09.236Z,3.60
2019-02-24T00:55:38.605Z,3.60
2019-02-24T00:58:15.967Z,3.50
2019-02-24T01:00:39.276Z,3.50
2019-02-24T01:03:08.905Z,3.50
2019-02-24T01:05:38.342Z,3.60
2019-02-24T01:08:07.767Z,3.50
2019-02-24T01:10:37.622Z,3.50
2019-02-24T01:13:10.102Z,3.60
2019-02-24T01:15:39.453Z,3.60
2019-02-24T01:18:08.814Z,3.60
2019-02-24T01:20:38.329Z,3.60
2019-02-24T01:23:08.011Z,3.60
2019-02-24T01:25:39.498Z,3.50
2019-02-24T01:28:10.087Z,3.60
2019-02-24T01:30:40.088Z,3.50
2019-02-24T01:33:09.409Z,3.50
2019-02-24T01:35:39.428Z,3.50
2019-02-24T01:38:12.958Z,3.50
2019-02-24T01:40:43.235Z,3.50
2019-02-24T01:43:13.019Z,3.50
2019-02-24T01:49:22.659Z,3.50
2019-02-24T01:51:53.323Z,3.40
2019-02-24T01:54:22.745Z,3.40
2019-02-24T01:56:54.703Z,3.40
2019-02-24T01:59:24.102Z,3.40
2019-02-24T02:05:35.196Z,3.40
2019-02-24T02:08:04.624Z,3.40
2019-02-24T02:10:34.069Z,3.40
2019-02-24T02:13:03.643Z,3.40
2019-02-24T02:19:13.140Z,3.40
2019-02-24T02:21:42.616Z,3.30
2019-02-24T02:24:11.987Z,3.30
2019-02-24T02:26:41.345Z,3.30
2019-02-24T02:29:11.817Z,3.30
2019-02-24T02:31:41.044Z,3.30
2019-02-24T02:34:10.880Z,3.30
2019-02-24T02:36:40.108Z,3.30
2019-02-24T02:42:50.001Z,3.30
2019-02-24T02:45:19.276Z,3.30
2019-02-24T02:47:48.832Z,3.30
2019-02-24T02:50:18.312Z,3.30
2019-02-24T02:56:15.900Z,3.30
2019-02-24T02:58:54.027Z,3.20
2019-02-24T03:01:16.223Z,3.20
2019-02-24T03:03:45.561Z,3.20
2019-02-24T03:06:28.935Z,3.20
2019-02-24T03:08:59.056Z,3.20
2019-02-24T03:11:28.366Z,3.20
2019-02-24T03:13:57.795Z,3.20
2019-02-24T03:16:28.435Z,3.20
2019-02-24T03:18:57.776Z,3.20
2019-02-24T03:21:27.094Z,3.20
2019-02-24T03:23:57.839Z,3.20
2019-02-24T03:26:27.221Z,3.20
2019-02-24T03:29:03.826Z,3.20
2019-02-24T03:31:27.972Z,3.20
2019-02-24T03:33:58.780Z,3.20
2019-02-24T03:36:28.398Z,3.20
2019-02-24T03:38:57.765Z,3.20
2019-02-24T03:41:27.013Z,3.20
2019-02-24T03:43:56.661Z,3.20
2019-02-24T03:46:26.085Z,3.20
2019-02-24T03:48:55.504Z,3.20
2019-02-24T03:51:25.095Z,3.20
2019-02-24T03:53:54.775Z,3.20
2019-02-24T03:56:24.982Z,3.10
2019-02-24T03:58:54.298Z,3.10
2019-02-24T04:01:23.715Z,3.10
2019-02-24T04:03:53.036Z,3.10
2019-02-24T04:06:22.670Z,3.10
2019-02-24T04:08:53.467Z,3.10
2019-02-24T04:11:22.739Z,3.10
2019-02-24T04:13:53.509Z,3.10
2019-02-24T04:20:03.402Z,3.10
2019-02-24T04:22:32.953Z,3.10
2019-02-24T04:25:02.311Z,3.10
2019-02-24T04:27:31.622Z,3.10
2019-02-24T04:30:01.060Z,3.10
2019-02-24T04:32:30.376Z,3.10
2019-02-24T04:35:00.281Z,3.10
2019-02-24T04:37:29.965Z,3.20
2019-02-24T04:39:59.233Z,3.20
2019-02-24T04:42:28.828Z,3.20
2019-02-24T04:44:58.446Z,3.20
2019-02-24T04:51:08.080Z,3.20
2019-02-24T04:53:37.257Z,3.20
2019-02-24T04:56:06.558Z,3.10
2019-02-24T04:58:35.825Z,3.10
2019-02-24T05:01:05.227Z,3.10
2019-02-24T05:03:34.496Z,3.10
2019-02-24T05:07:03.875Z,3.10
2019-02-24T05:09:33.154Z,3.10
2019-02-24T05:12:02.667Z,3.10
2019-02-24T05:14:32.600Z,3.10
2019-02-24T05:29:22.546Z,2.90
2019-02-24T05:31:43.097Z,2.90
2019-02-24T05:34:12.684Z,2.80
2019-02-24T05:36:56.245Z,2.80
2019-02-24T05:39:32.550Z,2.80
2019-02-24T05:42:03.769Z,2.70
2019-02-24T05:44:35.981Z,2.70
2019-02-24T05:47:09.490Z,2.70
2019-02-24T05:54:54.127Z,2.60
2019-02-24T05:56:53.755Z,2.50
2019-02-24T05:59:23.528Z,2.40
2019-02-24T06:02:28.417Z,2.40
2019-02-24T06:04:58.190Z,2.40
2019-02-24T06:07:27.379Z,2.40
2019-02-24T06:10:02.724Z,2.30
2019-02-24T06:13:23.309Z,2.30
2019-02-24T06:15:52.433Z,2.30
2019-02-24T06:18:21.979Z,2.30
2019-02-24T06:20:57.922Z,2.20
2019-02-24T06:23:29.168Z,2.20
2019-02-24T06:26:11.495Z,2.20
2019-02-24T06:28:55.423Z,2.20
2019-02-24T06:31:25.479Z,2.20
2019-02-24T06:34:01.464Z,2.20
2019-02-24T06:36:31.238Z,2.10
2019-02-24T06:39:34.074Z,2.10
2019-02-24T06:42:03.487Z,2.00
2019-02-24T06:44:32.760Z,2.00
2019-02-24T06:47:02.034Z,1.90
2019-02-24T06:49:31.598Z,1.90
2019-02-24T06:59:09.347Z,2.00
2019-02-24T07:05:29.159Z,2.10
2019-02-24T07:08:01.764Z,2.20
2019-02-24T07:10:43.300Z,2.20
2019-02-24T07:13:29.675Z,2.30
2019-02-24T07:15:53.354Z,2.40
2019-02-24T07:18:57.833Z,2.50
2019-02-24T07:21:31.628Z,2.60
2019-02-24T07:24:06.025Z,2.70
2019-02-24T07:26:44.013Z,2.80
2019-02-24T07:38:38.425Z,3.10
2019-02-24T07:41:19.855Z,3.10
2019-02-24T07:43:54.146Z,3.20
2019-02-24T07:46:36.725Z,3.30
2019-02-24T07:49:07.018Z,3.40
2019-02-24T07:51:43.547Z,3.50
2019-02-24T07:54:36.161Z,3.60
2019-02-24T08:04:07.455Z,4.00
2019-02-24T08:06:53.602Z,4.20
2019-02-24T08:09:23.724Z,4.30
2019-02-24T08:11:56.098Z,4.40
2019-02-24T08:14:25.869Z,4.40
2019-02-24T08:16:55.496Z,4.60
2019-02-24T08:19:26.605Z,4.60
2019-02-24T08:22:01.735Z,4.70
2019-02-24T08:24:37.969Z,4.80
2019-02-24T08:27:09.551Z,5.00
2019-02-24T08:29:39.147Z,5.10
2019-02-24T08:32:13.752Z,5.20
2019-02-24T08:34:56.775Z,5.20
2019-02-24T08:37:29.203Z,5.30
2019-02-24T08:40:11.075Z,5.40
2019-02-24T08:42:50.561Z,5.50
2019-02-24T08:49:33.954Z,5.70
2019-02-24T08:52:15.139Z,5.80
2019-02-24T08:55:03.162Z,5.90
2019-02-24T08:57:49.214Z,5.90
2019-02-24T09:00:18.556Z,6.00
2019-02-24T09:02:47.577Z,6.10
2019-02-24T09:05:16.907Z,6.20
2019-02-24T09:07:52.427Z,6.30
2019-02-24T09:10:26.754Z,6.40
2019-02-24T09:13:07.041Z,6.50
2019-02-24T09:15:36.784Z,6.50
2019-02-24T09:18:06.179Z,6.60
2019-02-24T09:20:35.502Z,6.70
2019-02-24T09:23:04.947Z,6.80
2019-02-24T09:25:34.329Z,6.90
2019-02-24T09:28:03.272Z,7.00
2019-02-24T09:30:32.782Z,7.10
2019-02-24T09:33:01.868Z,7.20
2019-02-24T09:35:31.586Z,7.20
2019-02-24T09:38:00.793Z,7.30
2019-02-24T09:40:29.777Z,7.40
2019-02-24T09:42:58.885Z,7.50
2019-02-24T09:45:28.101Z,7.60
2019-02-24T09:47:59.018Z,7.70
2019-02-24T09:50:39.210Z,7.80
2019-02-24T09:53:33.510Z,7.90
2019-02-24T09:56:03.181Z,8.00
2019-02-24T09:58:39.018Z,8.10
2019-02-24T10:01:10.958Z,8.10
2019-02-24T10:03:41.925Z,8.20
2019-02-24T10:06:30.281Z,8.30
2019-02-24T10:09:01.887Z,8.40
2019-02-24T10:11:32.476Z,8.40
2019-02-24T10:14:02.425Z,8.50
2019-02-24T10:16:38.633Z,8.60
2019-02-24T10:19:36.949Z,8.70
2019-02-24T10:25:45.815Z,8.90
2019-02-24T10:28:15.183Z,9.00
2019-02-24T10:30:44.702Z,9.10
2019-02-24T10:33:14.192Z,9.20
2019-02-24T10:38:20.035Z,9.40
2019-02-24T10:40:50.199Z,9.50
2019-02-24T10:43:45.122Z,9.60
2019-02-24T10:46:22.196Z,9.70
2019-02-24T10:48:52.321Z,9.80
2019-02-24T10:51:21.582Z,9.90
2019-02-24T10:53:57.599Z,10.00
2019-02-24T10:56:29.001Z,10.00
2019-02-24T10:59:01.367Z,10.10
2019-02-24T11:01:33.800Z,10.20
2019-02-24T11:04:03.752Z,10.30
2019-02-24T11:06:33.377Z,10.40
2019-02-24T11:09:02.981Z,10.50
2019-02-24T11:11:35.566Z,10.50
2019-02-24T11:14:04.938Z,10.60
2019-02-24T11:16:35.148Z,10.70
2019-02-24T11:19:04.551Z,10.80
2019-02-24T11:21:33.870Z,10.90
2019-02-24T11:24:04.385Z,10.90
2019-02-24T11:26:33.918Z,11.00
2019-02-24T11:29:04.306Z,11.20
2019-02-24T11:31:41.388Z,11.30
2019-02-24T11:34:27.258Z,11.40
2019-02-24T11:36:59.868Z,11.50
2019-02-24T11:39:29.886Z,11.60
2019-02-24T11:42:09.155Z,11.60
2019-02-24T11:44:48.021Z,11.70
2019-02-24T11:47:17.538Z,11.80
2019-02-24T11:49:59.341Z,11.90
2019-02-24T11:52:30.086Z,12.00
2019-02-24T11:54:59.309Z,12.00
2019-02-24T12:01:47.628Z,12.20
2019-02-24T12:04:17.268Z,12.30
2019-02-24T12:06:55.629Z,12.40
2019-02-24T12:36:05.380Z,13.20
2019-02-24T12:59:58.743Z,13.80
2019-02-24T13:03:29.023Z,13.80
2019-02-24T13:28:57.609Z,14.10
2019-02-24T13:31:28.688Z,14.10
2019-02-24T13:33:59.169Z,14.20
2019-02-24T13:36:30.966Z,14.30
2019-02-24T13:39:03.368Z,14.30
2019-02-24T13:41:40.413Z,14.40
2019-02-24T15:38:35.764Z,13.60
2019-02-24T15:48:20.910Z,13.30
2019-02-24T15:54:34.195Z,13.10
2019-02-24T16:13:40.159Z,12.60
2019-02-24T16:47:04.530Z,11.70
2019-02-24T16:58:40.806Z,11.40
2019-02-24T17:03:55.641Z,11.20
2019-02-24T17:06:47.419Z,11.10
2019-02-24T17:17:24.019Z,10.80
2019-02-24T17:19:53.610Z,10.70
2019-02-24T17:22:25.507Z,10.60
2019-02-24T17:24:54.646Z,10.50
2019-02-24T17:27:23.807Z,10.40
2019-02-24T17:30:07.701Z,10.30
2019-02-24T17:32:37.071Z,10.30
2019-02-24T17:37:49.925Z,10.10
2019-02-24T17:40:30.103Z,10.00
2019-02-24T17:49:19.784Z,9.80
2019-02-24T18:09:04.792Z,9.00
2019-02-24T18:11:34.446Z,9.00
2019-02-24T18:14:04.078Z,8.90
2019-02-24T18:16:34.705Z,8.80
2019-02-24T18:19:04.394Z,8.80
2019-02-24T18:22:48.066Z,8.70
2019-02-24T18:28:25.997Z,8.60
2019-02-24T18:31:07.307Z,8.60
2019-02-24T18:40:39.816Z,8.30
2019-02-24T18:43:33.440Z,8.30
2019-02-24T18:49:35.530Z,8.20
2019-02-24T18:52:47.649Z,8.20
2019-02-24T18:59:01.303Z,8.00
2019-02-24T19:01:39.459Z,7.90
2019-02-24T19:04:09.833Z,7.80
2019-02-24T19:06:48.080Z,7.70
2019-02-24T19:20:40.459Z,7.40
2019-02-24T19:23:50.497Z,7.40
2019-02-24T19:26:20.350Z,7.30
2019-02-24T19:28:49.874Z,7.30
2019-02-24T19:34:59.202Z,7.20
2019-02-24T19:37:31.096Z,7.20
2019-02-24T19:40:34.192Z,7.10
2019-02-24T19:43:09.962Z,7.10
2019-02-24T19:45:57.194Z,7.00
2019-02-24T19:54:47.791Z,6.90
2019-02-24T19:57:23.519Z,6.80
2019-02-24T20:00:04.254Z,6.70
2019-02-24T20:03:10.243Z,6.70
2019-02-24T20:06:17.925Z,6.60
2019-02-24T20:20:29.163Z,6.40
2019-02-24T20:22:53.096Z,6.30
2019-02-24T20:26:11.128Z,6.20
2019-02-24T20:45:22.688Z,6.00
2019-02-24T20:47:52.283Z,5.90
2019-02-24T20:50:23.690Z,5.90
2019-02-24T20:52:55.305Z,5.80
2019-02-24T20:55:32.799Z,5.80
2019-02-24T20:58:02.097Z,5.80
2019-02-24T21:00:34.049Z,5.70
2019-02-24T21:03:03.392Z,5.70
2019-02-24T21:05:32.774Z,5.60
2019-02-24T21:08:02.448Z,5.50
2019-02-24T21:10:31.823Z,5.50
2019-02-24T21:13:01.790Z,5.40
2019-02-24T21:16:23.739Z,5.30
2019-02-24T21:18:53.542Z,5.30
2019-02-24T21:21:25.968Z,5.20
2019-02-24T21:23:55.977Z,5.10
2019-02-24T21:26:26.201Z,5.10
2019-02-24T21:28:55.567Z,5.00
2019-02-24T21:31:29.251Z,4.90
2019-02-24T21:34:01.861Z,4.80
2019-02-24T21:36:31.188Z,4.80
2019-02-24T21:39:00.715Z,4.70
2019-02-24T21:41:30.137Z,4.70
2019-02-24T21:43:59.334Z,4.70
2019-02-24T21:46:29.146Z,4.60
2019-02-24T21:48:58.877Z,4.60
2019-02-24T21:51:28.249Z,4.60
2019-02-24T21:54:00.559Z,4.60
2019-02-24T21:56:29.842Z,4.60
2019-02-24T21:59:01.808Z,4.60
2019-02-24T22:01:35.895Z,4.60
2019-02-24T22:04:06.128Z,4.60
2019-02-24T22:06:35.786Z,4.60
2019-02-24T22:09:08.837Z,4.50
2019-02-24T22:11:40.186Z,4.50
2019-02-24T22:14:09.704Z,4.50
2019-02-24T22:16:39.026Z,4.50
2019-02-24T22:19:08.414Z,4.40
2019-02-24T22:21:39.386Z,4.40
2019-02-24T22:24:41.046Z,4.40
2019-02-24T22:27:12.996Z,4.30
2019-02-24T22:29:43.816Z,4.30
2019-02-24T22:32:13.213Z,4.20
2019-02-24T22:34:43.032Z,4.20
2019-02-24T22:37:12.418Z,4.10
2019-02-24T22:39:42.108Z,4.10
2019-02-24T22:42:11.457Z,4.00
2019-02-24T22:44:40.932Z,4.00
2019-02-24T22:47:10.235Z,4.00
2019-02-24T22:49:39.874Z,4.00
2019-02-24T22:52:10.300Z,4.00
2019-02-24T22:54:39.897Z,4.00
2019-02-24T22:57:09.629Z,4.00
2019-02-24T22:59:39.217Z,3.90
2019-02-24T23:02:23.877Z,3.90
2019-02-24T23:04:56.545Z,3.90
2019-02-24T23:07:26.234Z,3.90
2019-02-24T23:09:56.461Z,3.90
2019-02-24T23:12:25.729Z,3.90
2019-02-24T23:14:55.015Z,3.90
2019-02-24T23:17:24.452Z,3.90
2019-02-24T23:19:53.683Z,3.90
2019-02-24T23:22:23.005Z,3.90
2019-02-24T23:24:52.852Z,3.90
2019-02-24T23:27:22.181Z,3.80
2019-02-24T23:30:05.195Z,3.80
2019-02-24T23:32:34.912Z,3.70
2019-02-24T23:35:05.041Z,3.70
2019-02-24T23:37:34.509Z,3.70
2019-02-24T23:40:06.878Z,3.60
2019-02-24T23:42:36.120Z,3.60
2019-02-24T23:45:22.071Z,3.50
2019-02-24T23:47:51.473Z,3.50
2019-02-24T23:50:42.153Z,3.50
2019-02-24T23:53:11.490Z,3.50
2019-02-24T23:55:40.824Z,3.40
2019-02-24T23:58:18.440Z,3.50
